Time;durP1;ratioP1;P1;durP2;ratioP2;P2;SDS_P1;SDS_P2;PMS_P1;PMS_P2;Temp;Humidity;BMP_temperature;BMP_pressure;BME280_temperature;BME280_humidity;BME280_pressure;Samples;Min_cycle;Max_cycle;Signal;HPM_P1;HPM_P2
2022/09/22 00:01:20;;;;;;;4.53;2.72;;;9.70;99.90;;;;;;6213843;23;20020;-85
2022/09/22 00:03:51;;;;;;;5.45;2.63;;;9.90;99.90;;;;;;6235974;23;20016;-85
2022/09/22 00:06:19;;;;;;;4.25;2.75;;;9.50;99.90;;;;;;6234442;23;20048;-85
2022/09/22 00:08:50;;;;;;;4.47;2.70;;;9.60;99.90;;;;;;6226896;23;20016;-85
2022/09/22 00:11:19;;;;;;;4.07;2.58;;;9.50;99.90;;;;;;6196497;23;20023;-85
2022/09/22 00:13:50;;;;;;;6.72;3.35;;;9.50;99.90;;;;;;6190061;23;20020;-85
2022/09/22 00:16:18;;;;;;;7.00;3.53;;;9.50;99.90;;;;;;6213257;23;20020;-85
2022/09/22 00:18:44;;;;;;;7.65;3.85;;;9.50;99.90;;;;;;6186288;23;20394;-84
2022/09/22 00:21:17;;;;;;;6.47;3.33;;;9.50;99.90;;;;;;6186421;23;20467;-84
2022/09/22 00:23:46;;;;;;;5.15;3.10;;;9.30;99.90;;;;;;6186677;23;20083;-85
2022/09/22 00:26:14;;;;;;;5.32;3.28;;;9.60;99.90;;;;;;6212178;23;20031;-85
2022/09/22 00:28:42;;;;;;;7.57;3.40;;;9.50;99.90;;;;;;6186249;23;20020;-84
2022/09/22 00:31:19;;;;;;;5.13;2.97;;;9.50;99.90;;;;;;6185746;23;20024;-85
2022/09/22 00:33:48;;;;;;;7.13;3.22;;;9.50;99.90;;;;;;6186971;23;20020;-84
2022/09/22 00:36:15;;;;;;;8.07;3.67;;;9.50;99.90;;;;;;6187294;23;20019;-84
2022/09/22 00:38:42;;;;;;;6.63;3.40;;;8.30;99.90;;;;;;6186794;23;20440;-84
2022/09/22 00:41:17;;;;;;;10.43;5.20;;;8.80;99.90;;;;;;6186666;23;20105;-84
2022/09/22 00:44:06;;;;;;;5.82;3.58;;;8.30;99.90;;;;;;6186604;23;20023;-82
2022/09/22 00:46:39;;;;;;;7.10;3.70;;;10.60;99.90;;;;;;6186836;23;20098;-85
2022/09/22 00:49:07;;;;;;;6.35;3.70;;;9.40;99.90;;;;;;6162866;23;20070;-84
2022/09/22 00:51:37;;;;;;;6.00;3.70;;;9.30;99.90;;;;;;6185932;23;20135;-85
2022/09/22 00:54:07;;;;;;;8.50;3.83;;;9.30;99.90;;;;;;6187044;23;20394;-85
2022/09/22 00:56:52;;;;;;;6.93;3.75;;;9.30;99.90;;;;;;6186404;23;20016;-83
2022/09/22 00:59:22;;;;;;;5.30;3.25;;;9.30;99.90;;;;;;6186024;23;20020;-84
2022/09/22 01:01:48;;;;;;;5.53;3.08;;;9.20;99.90;;;;;;6185410;23;20020;-84
2022/09/22 01:04:15;;;;;;;4.80;3.03;;;9.40;99.90;;;;;;6185600;23;20024;-85
2022/09/22 01:06:45;;;;;;;7.68;3.00;;;9.30;99.90;;;;;;6228112;22;20023;-85
2022/09/22 01:09:14;;;;;;;6.78;3.00;;;9.10;99.90;;;;;;6216660;22;20019;-84
2022/09/22 01:11:41;;;;;;;6.07;3.00;;;9.20;99.90;;;;;;6215648;22;20054;-84
2022/09/22 01:14:45;;;;;;;5.50;3.13;;;9.10;99.90;;;;;;6219919;22;20023;-83
2022/09/22 01:17:40;;;;;;;5.47;2.90;;;9.00;99.90;;;;;;6220822;22;20026;-84
2022/09/22 01:20:33;;;;;;;4.45;2.70;;;9.00;99.90;;;;;;6200821;22;20019;-85
2022/09/22 01:23:05;;;;;;;5.68;2.30;;;9.00;99.90;;;;;;6215770;22;20020;-84
2022/09/22 01:26:08;;;;;;;4.75;2.38;;;8.90;99.90;;;;;;6241959;22;20023;-85
2022/09/22 01:29:03;;;;;;;4.70;2.60;;;8.90;99.90;;;;;;6216398;22;20022;-85
2022/09/22 01:31:59;;;;;;;4.70;2.25;;;8.80;99.90;;;;;;6215724;22;20513;-86
2022/09/22 01:34:48;;;;;;;4.05;2.20;;;8.80;99.90;;;;;;6217675;22;20051;-85
2022/09/22 01:37:38;;;;;;;5.65;2.70;;;8.70;99.90;;;;;;6217129;22;20038;-84
2022/09/22 01:40:14;;;;;;;6.03;3.38;;;8.70;99.90;;;;;;6217498;22;20027;-85
2022/09/22 01:43:16;;;;;;;5.55;3.50;;;8.70;99.90;;;;;;6261596;22;20023;-85
2022/09/22 01:45:45;;;;;;;6.85;3.47;;;8.70;99.90;;;;;;6216170;22;20073;-86
2022/09/22 01:48:26;;;;;;;4.78;3.53;;;8.70;99.90;;;;;;6242976;22;20055;-86
2022/09/22 01:51:22;;;;;;;7.25;3.17;;;8.80;99.90;;;;;;6226529;22;20034;-86
2022/09/22 01:53:57;;;;;;;6.53;3.80;;;8.80;99.90;;;;;;6247562;22;20020;-85
2022/09/22 01:56:28;;;;;;;6.93;3.60;;;8.80;99.90;;;;;;6216880;22;20737;-85
2022/09/22 01:59:01;;;;;;;6.20;4.10;;;8.90;99.90;;;;;;6241186;22;20494;-85
2022/09/22 02:02:00;;;;;;;5.70;3.75;;;8.80;99.90;;;;;;6215930;22;20020;-85
2022/09/22 02:04:44;;;;;;;4.43;3.35;;;8.90;99.90;;;;;;6225542;22;20023;-84
2022/09/22 02:07:23;;;;;;;3.90;2.67;;;8.90;99.90;;;;;;6217061;23;20408;-85
2022/09/22 02:09:50;;;;;;;5.60;2.65;;;8.80;99.90;;;;;;6185768;23;20027;-86
2022/09/22 02:12:17;;;;;;;3.65;2.15;;;8.90;99.90;;;;;;6159779;23;20020;-85
2022/09/22 02:14:47;;;;;;;4.68;2.30;;;8.90;99.90;;;;;;6185705;23;20111;-86
2022/09/22 02:17:14;;;;;;;3.55;2.28;;;8.80;99.90;;;;;;6185834;23;20028;-86
2022/09/22 02:19:41;;;;;;;3.20;2.30;;;8.80;99.90;;;;;;6187180;23;20012;-86
2022/09/22 02:22:09;;;;;;;3.50;2.38;;;8.90;99.90;;;;;;6187304;23;20044;-84
2022/09/22 02:24:38;;;;;;;3.67;2.20;;;8.70;99.90;;;;;;6188443;23;20020;-85
2022/09/22 02:27:26;;;;;;;3.00;2.00;;;8.70;99.90;;;;;;6212254;23;20043;-85
2022/09/22 02:30:07;;;;;;;2.63;1.73;;;8.60;99.90;;;;;;6210868;23;20023;-85
2022/09/22 02:32:38;;;;;;;4.95;2.28;;;8.60;99.90;;;;;;6212483;23;20023;-85
2022/09/22 02:35:06;;;;;;;4.78;2.10;;;8.50;99.90;;;;;;6212310;23;20020;-85
2022/09/22 02:37:48;;;;;;;4.15;2.00;;;8.40;99.90;;;;;;6163946;23;20020;-85
2022/09/22 02:40:31;;;;;;;2.90;2.00;;;8.60;99.90;;;;;;6187590;23;20031;-85
2022/09/22 02:43:16;;;;;;;4.13;2.40;;;8.00;99.90;;;;;;6212886;23;20107;-84
2022/09/22 02:46:09;;;;;;;5.30;2.60;;;8.40;99.90;;;;;;6188420;23;20020;-86
2022/09/22 02:49:05;;;;;;;4.72;3.00;;;8.40;99.90;;;;;;6187913;23;20017;-86
2022/09/22 02:51:32;;;;;;;5.65;3.20;;;8.50;99.90;;;;;;6181366;23;20099;-85
2022/09/22 02:53:57;;;;;;;5.00;3.35;;;8.40;99.90;;;;;;6212040;23;20065;-85
2022/09/22 02:56:24;;;;;;;4.65;3.10;;;9.90;99.90;;;;;;6162285;23;20126;-84
2022/09/22 02:58:50;;;;;;;5.22;3.47;;;8.40;99.90;;;;;;6186379;23;20020;-86
2022/09/22 03:01:18;;;;;;;5.93;3.70;;;8.50;99.90;;;;;;6186289;23;20024;-86
2022/09/22 03:03:43;;;;;;;5.95;3.25;;;8.40;99.90;;;;;;6213261;23;20455;-85
2022/09/22 03:06:10;;;;;;;6.07;3.50;;;8.40;99.90;;;;;;6185859;23;20099;-86
2022/09/22 03:08:36;;;;;;;4.57;3.10;;;8.50;99.90;;;;;;6186943;23;20051;-86
2022/09/22 03:11:01;;;;;;;6.28;3.47;;;8.50;99.90;;;;;;6186111;23;20401;-86
2022/09/22 03:13:27;;;;;;;7.28;3.22;;;8.50;99.90;;;;;;6186690;23;20534;-85
2022/09/22 03:15:53;;;;;;;4.50;3.45;;;8.40;99.90;;;;;;6211832;23;20091;-85
2022/09/22 03:18:19;;;;;;;4.47;3.10;;;8.50;99.90;;;;;;6188671;23;20031;-85
2022/09/22 03:20:45;;;;;;;4.53;3.25;;;8.50;99.90;;;;;;6164371;23;20016;-85
2022/09/22 03:23:10;;;;;;;5.97;3.30;;;8.40;99.90;;;;;;6185904;23;20020;-86
2022/09/22 03:25:42;;;;;;;7.28;3.63;;;8.40;99.90;;;;;;6187170;23;20027;-85
2022/09/22 03:28:07;;;;;;;6.95;3.90;;;8.50;99.90;;;;;;6187011;23;20020;-85
2022/09/22 03:30:36;;;;;;;7.25;3.55;;;8.40;99.90;;;;;;6187149;23;20103;-85
2022/09/22 03:33:06;;;;;;;5.95;4.10;;;8.60;99.90;;;;;;6210752;23;20063;-85
2022/09/22 03:35:35;;;;;;;5.63;3.50;;;8.40;99.90;;;;;;6187759;23;20016;-85
2022/09/22 03:38:01;;;;;;;5.18;3.53;;;8.50;99.90;;;;;;6211447;23;20020;-85
2022/09/22 03:40:26;;;;;;;5.03;3.58;;;8.40;99.90;;;;;;6187356;23;20422;-85
2022/09/22 03:42:52;;;;;;;4.07;3.08;;;8.40;99.90;;;;;;6160832;23;20859;-85
2022/09/22 03:45:18;;;;;;;6.10;3.30;;;9.50;99.90;;;;;;6187416;23;20020;-85
2022/09/22 03:47:47;;;;;;;5.63;2.70;;;8.40;99.90;;;;;;6212657;23;20031;-86
2022/09/22 03:50:17;;;;;;;4.63;2.63;;;8.30;99.90;;;;;;6186887;23;20020;-84
2022/09/22 03:52:43;;;;;;;4.00;2.65;;;8.40;99.90;;;;;;6162463;23;20043;-85
2022/09/22 03:55:10;;;;;;;3.60;2.75;;;8.20;99.90;;;;;;6186493;23;20440;-85
2022/09/22 03:57:35;;;;;;;5.68;2.88;;;8.20;99.90;;;;;;6164858;23;20020;-85
2022/09/22 04:00:03;;;;;;;4.40;2.90;;;8.30;99.90;;;;;;6210493;23;20019;-85
2022/09/22 04:02:29;;;;;;;3.50;2.65;;;8.10;99.90;;;;;;6185959;23;20016;-85
2022/09/22 04:04:55;;;;;;;4.07;2.60;;;8.10;99.90;;;;;;6211930;23;20012;-85
2022/09/22 04:07:22;;;;;;;3.58;3.00;;;8.00;99.90;;;;;;6211571;22;20019;-85
2022/09/22 04:09:57;;;;;;;4.97;2.97;;;9.50;99.90;;;;;;6216591;22;20035;-86
2022/09/22 04:12:25;;;;;;;4.93;2.60;;;8.90;99.90;;;;;;6216392;22;20020;-85
2022/09/22 04:14:51;;;;;;;3.63;2.75;;;7.40;99.90;;;;;;6215956;22;20020;-85
2022/09/22 04:17:19;;;;;;;5.15;2.80;;;8.10;99.90;;;;;;6216419;22;20750;-86
2022/09/22 04:19:45;;;;;;;4.25;2.80;;;7.90;99.90;;;;;;6217193;22;20019;-85
2022/09/22 04:22:12;;;;;;;5.10;2.83;;;7.90;99.90;;;;;;6216280;22;20130;-85
2022/09/22 04:24:37;;;;;;;4.68;2.97;;;7.90;99.90;;;;;;6217168;22;20024;-85
2022/09/22 04:27:08;;;;;;;6.00;3.28;;;8.00;99.90;;;;;;6215236;22;20074;-84
2022/09/22 04:29:34;;;;;;;5.18;3.10;;;7.90;99.90;;;;;;6217357;22;20091;-84
2022/09/22 04:32:03;;;;;;;6.72;3.22;;;8.20;99.90;;;;;;6191676;22;20597;-85
2022/09/22 04:34:34;;;;;;;6.70;3.28;;;8.00;99.90;;;;;;6216401;22;20026;-86
2022/09/22 04:37:02;;;;;;;5.28;3.40;;;8.10;99.90;;;;;;6190852;22;20190;-84
2022/09/22 04:39:28;;;;;;;5.78;2.83;;;9.40;99.90;;;;;;6191770;22;20019;-86
2022/09/22 04:41:54;;;;;;;5.65;3.22;;;8.20;99.90;;;;;;6215790;22;20016;-84
2022/09/22 04:44:20;;;;;;;5.80;2.92;;;8.10;99.90;;;;;;6215566;22;20042;-85
2022/09/22 04:46:49;;;;;;;6.28;3.72;;;9.20;99.90;;;;;;6217072;22;20094;-85
2022/09/22 04:49:15;;;;;;;3.13;2.63;;;8.30;99.90;;;;;;6215587;22;20076;-84
2022/09/22 04:51:41;;;;;;;7.97;3.72;;;8.10;99.90;;;;;;6216675;22;20098;-83
2022/09/22 04:54:07;;;;;;;5.20;3.00;;;8.00;99.90;;;;;;6191863;22;20074;-84
2022/09/22 04:56:32;;;;;;;4.03;2.92;;;8.10;99.90;;;;;;6218334;22;20015;-83
2022/09/22 04:58:58;;;;;;;4.90;2.92;;;8.10;99.90;;;;;;6203397;22;20016;-85
2022/09/22 05:01:27;;;;;;;5.45;2.92;;;8.10;99.90;;;;;;6224927;22;20027;-87
2022/09/22 05:03:53;;;;;;;4.30;2.80;;;7.90;99.90;;;;;;6253755;22;20038;-85
2022/09/22 05:06:21;;;;;;;4.95;2.63;;;9.00;99.90;;;;;;6204381;23;20020;-86
2022/09/22 05:08:47;;;;;;;3.65;2.50;;;8.20;99.90;;;;;;6210757;23;20035;-84
2022/09/22 05:11:13;;;;;;;4.50;2.97;;;7.90;99.90;;;;;;6184974;23;20026;-87
2022/09/22 05:13:39;;;;;;;4.75;2.78;;;8.50;99.90;;;;;;6186213;23;20074;-85
2022/09/22 05:16:11;;;;;;;4.53;2.45;;;7.90;99.90;;;;;;6186252;23;20050;-85
2022/09/22 05:18:38;;;;;;;4.32;2.65;;;6.50;99.90;;;;;;6185783;23;20389;-85
2022/09/22 05:21:06;;;;;;;3.80;2.30;;;8.00;99.90;;;;;;6184972;23;20027;-84
2022/09/22 05:23:31;;;;;;;4.20;2.50;;;7.70;99.90;;;;;;6185641;23;20024;-84
2022/09/22 05:25:57;;;;;;;4.55;2.30;;;7.80;99.90;;;;;;6160603;23;20016;-84
2022/09/22 05:28:25;;;;;;;3.83;2.38;;;7.80;99.90;;;;;;6184917;23;20090;-85
2022/09/22 05:30:51;;;;;;;5.53;2.65;;;7.70;99.90;;;;;;6185559;23;20012;-85
2022/09/22 05:33:17;;;;;;;5.78;2.50;;;9.10;99.90;;;;;;6185150;23;20119;-85
2022/09/22 05:35:43;;;;;;;4.20;2.28;;;7.90;99.90;;;;;;6211016;23;20107;-85
2022/09/22 05:38:16;;;;;;;4.88;2.58;;;9.30;99.90;;;;;;6184195;23;20020;-87
2022/09/22 05:40:46;;;;;;;4.35;2.38;;;7.70;99.90;;;;;;6185906;23;20058;-85
2022/09/22 05:43:15;;;;;;;4.93;2.55;;;7.60;99.90;;;;;;6209647;23;20081;-86
2022/09/22 05:45:46;;;;;;;3.88;2.50;;;7.60;99.90;;;;;;6210975;23;20447;-85
2022/09/22 05:48:14;;;;;;;4.60;2.78;;;8.80;99.90;;;;;;6185707;23;20575;-86
2022/09/22 05:50:45;;;;;;;4.15;2.40;;;7.90;99.90;;;;;;6186872;23;20082;-85
2022/09/22 05:53:22;;;;;;;3.65;2.53;;;7.70;99.90;;;;;;6187343;23;20024;-88
2022/09/22 05:56:01;;;;;;;;;;;;;;;;;;;;;
2022/09/22 05:58:30;;;;;;;4.90;2.30;;;7.00;99.90;;;;;;6214688;23;20027;-88
2022/09/22 06:01:25;;;;;;;;;;;;;;;;;;;;;
2022/09/22 06:03:53;;;;;;;2.70;2.15;;;7.20;99.90;;;;;;6216102;23;20055;-85
2022/09/22 06:06:22;;;;;;;4.80;1.75;;;7.70;99.90;;;;;;6201387;22;20343;-85
2022/09/22 06:08:48;;;;;;;2.72;1.70;;;9.30;99.90;;;;;;6243837;22;20605;-84
2022/09/22 06:11:18;;;;;;;2.97;2.10;;;7.80;99.90;;;;;;6217734;22;20058;-88
2022/09/22 06:13:53;;;;;;;3.03;2.17;;;7.70;99.90;;;;;;6222516;22;20065;-87
2022/09/22 06:16:19;;;;;;;3.13;2.03;;;8.20;99.90;;;;;;6221736;22;20020;-86
2022/09/22 06:18:55;;;;;;;5.82;2.90;;;7.80;99.90;;;;;;6220685;22;20020;-85
2022/09/22 06:21:37;;;;;;;;;;;;;;;;;;;;;
2022/09/22 06:24:06;;;;;;;8.27;3.42;;;8.90;99.90;;;;;;6244295;22;20019;-86
2022/09/22 06:26:52;;;;;;;6.00;3.38;;;7.90;99.90;;;;;;6221692;22;20012;-86
2022/09/22 06:29:20;;;;;;;4.90;3.08;;;8.00;99.90;;;;;;6221944;22;20023;-84
2022/09/22 06:31:47;;;;;;;6.75;3.35;;;8.10;99.90;;;;;;6220996;22;20016;-85
2022/09/22 06:34:16;;;;;;;6.18;3.47;;;8.80;99.90;;;;;;6219628;22;20016;-84
2022/09/22 06:36:45;;;;;;;6.13;3.30;;;8.30;99.90;;;;;;6220766;22;20508;-85
2022/09/22 06:39:13;;;;;;;6.53;3.53;;;8.20;99.90;;;;;;6220772;22;20011;-84
2022/09/22 06:41:43;;;;;;;6.03;3.60;;;8.40;99.90;;;;;;6220721;22;20016;-85
2022/09/22 06:44:13;;;;;;;5.75;3.40;;;7.00;99.90;;;;;;6219590;22;20414;-84
2022/09/22 06:46:39;;;;;;;8.35;4.03;;;8.50;99.90;;;;;;6244987;22;20015;-85
2022/09/22 06:49:05;;;;;;;5.15;3.30;;;8.60;99.90;;;;;;6220872;22;20024;-84
2022/09/22 06:51:32;;;;;;;4.70;3.53;;;9.70;99.90;;;;;;6219797;22;20019;-85
2022/09/22 06:54:02;;;;;;;5.65;4.15;;;8.70;99.90;;;;;;6246210;22;20024;-85
2022/09/22 06:56:36;;;;;;;6.70;3.75;;;8.80;99.90;;;;;;6219169;22;20338;-85
2022/09/22 06:59:04;;;;;;;5.15;3.60;;;8.90;99.90;;;;;;6221001;22;20031;-86
2022/09/22 07:01:30;;;;;;;6.75;3.72;;;9.00;99.90;;;;;;6219833;22;20023;-85
2022/09/22 07:04:01;;;;;;;5.72;3.72;;;9.20;99.90;;;;;;6245783;22;20018;-86
2022/09/22 07:06:30;;;;;;;5.88;3.85;;;9.20;99.90;;;;;;6179959;23;20024;-87
2022/09/22 07:08:58;;;;;;;5.65;3.45;;;9.30;99.90;;;;;;6186030;23;20024;-87
2022/09/22 07:11:24;;;;;;;6.05;4.35;;;9.40;99.90;;;;;;6211186;23;20119;-84
2022/09/22 07:13:52;;;;;;;7.10;3.83;;;9.50;99.90;;;;;;6161914;23;20113;-85
2022/09/22 07:16:22;;;;;;;6.95;4.07;;;9.70;99.90;;;;;;6186892;23;20016;-85
2022/09/22 07:18:50;;;;;;;8.63;4.68;;;9.80;99.90;;;;;;6186978;23;20078;-82
2022/09/22 07:21:39;;;;;;;7.15;5.00;;;9.90;99.90;;;;;;6188024;23;20448;-89
2022/09/22 07:28:11;;;;;;;7.85;4.90;;;10.40;99.90;;;;;;6058006;23;20049;-86
2022/09/22 07:30:42;;;;;;;10.18;5.43;;;10.70;99.90;;;;;;6090685;23;20049;-86
2022/09/22 07:36:53;;;;;;;8.20;5.00;;;11.20;99.90;;;;;;6166257;23;20099;-88
2022/09/22 07:40:06;;;;;;;9.43;5.50;;;11.30;99.90;;;;;;6188926;23;20024;-87
2022/09/22 07:42:52;;;;;;;8.00;4.95;;;11.50;99.90;;;;;;6188580;23;20022;-88
2022/09/22 07:45:23;;;;;;;7.68;4.78;;;11.80;99.90;;;;;;6214404;23;20024;-88
2022/09/22 07:50:33;;;;;;;6.28;4.63;;;12.20;99.90;;;;;;6220416;23;20095;-90
2022/09/22 07:52:59;;;;;;;7.13;5.28;;;12.50;99.90;;;;;;6218681;23;20070;-91
2022/09/22 07:55:25;;;;;;;5.90;4.95;;;12.70;99.90;;;;;;6188936;23;20087;-85
2022/09/22 07:58:00;;;;;;;7.45;4.47;;;13.00;99.90;;;;;;6163766;23;20444;-86
2022/09/22 08:00:31;;;;;;;8.07;4.50;;;13.30;99.90;;;;;;6184960;23;20066;-84
2022/09/22 08:02:57;;;;;;;6.57;4.78;;;13.50;99.90;;;;;;6187276;23;20024;-85
2022/09/22 08:05:26;;;;;;;7.43;4.38;;;13.70;99.90;;;;;;6139117;22;1115859;-81
2022/09/22 08:07:54;;;;;;;6.18;4.70;;;14.00;99.90;;;;;;6218537;22;20122;-86
2022/09/22 08:10:19;;;;;;;7.28;4.85;;;14.20;99.90;;;;;;6218599;22;20019;-83
2022/09/22 08:12:46;;;;;;;8.68;4.30;;;14.40;99.90;;;;;;6243340;22;20019;-84
2022/09/22 08:15:12;;;;;;;8.18;4.63;;;14.60;99.90;;;;;;6195131;22;20023;-85
2022/09/22 08:17:39;;;;;;;5.47;4.50;;;16.00;99.90;;;;;;6218331;22;20020;-85
2022/09/22 08:20:06;;;;;;;5.18;4.00;;;15.00;99.90;;;;;;6219776;22;20051;-85
2022/09/22 08:22:35;;;;;;;7.80;4.93;;;15.20;99.90;;;;;;6218835;22;20110;-87
2022/09/22 08:25:01;;;;;;;6.25;4.95;;;16.10;99.90;;;;;;6215024;22;20104;-86
2022/09/22 08:27:26;;;;;;;6.90;4.18;;;15.60;99.90;;;;;;6215107;22;20101;-87
2022/09/22 08:29:54;;;;;;;6.72;4.72;;;15.60;99.90;;;;;;6216442;22;20027;-87
2022/09/22 08:32:25;;;;;;;6.78;4.30;;;15.60;99.90;;;;;;6199026;22;20047;-85
2022/09/22 08:34:59;;;;;;;6.47;4.55;;;16.00;99.90;;;;;;6191639;22;20023;-86
2022/09/22 08:37:26;;;;;;;8.95;4.55;;;16.00;99.90;;;;;;6216022;22;20018;-87
2022/09/22 08:39:54;;;;;;;7.20;4.90;;;16.20;99.90;;;;;;6218422;22;20540;-86
2022/09/22 08:42:22;;;;;;;8.00;5.05;;;15.40;99.90;;;;;;6244092;22;20012;-87
2022/09/22 08:45:16;;;;;;;6.55;4.80;;;16.40;99.90;;;;;;6245884;22;20012;-87
2022/09/22 08:53:36;;;;;;;7.22;4.80;;;16.90;99.90;;;;;;6244584;22;20165;-88
2022/09/22 08:56:19;;;;;;;6.45;4.60;;;17.00;99.90;;;;;;6220130;22;20022;-87
2022/09/22 08:59:01;;;;;;;5.70;4.60;;;17.10;99.90;;;;;;6246149;22;20042;-86
2022/09/22 09:02:04;;;;;;;6.43;4.40;;;17.20;99.90;;;;;;6219387;22;20027;-88
2022/09/22 09:04:39;;;;;;;7.28;4.15;;;17.40;99.90;;;;;;6178719;22;20024;-88
2022/09/22 09:07:42;;;;;;;6.13;4.35;;;17.50;99.90;;;;;;6225645;22;20024;-89
2022/09/22 09:10:36;;;;;;;9.13;4.15;;;17.60;99.90;;;;;;6218785;22;20043;-88
2022/09/22 09:13:39;;;;;;;6.22;3.67;;;17.70;99.90;;;;;;6219784;22;20110;-88
2022/09/22 09:16:50;;;;;;;4.75;3.88;;;17.80;99.90;;;;;;6245972;22;20339;-87
2022/09/22 09:19:34;;;;;;;6.88;3.85;;;17.90;99.90;;;;;;6247106;22;20062;-89
2022/09/22 09:22:28;;;;;;;9.48;4.10;;;18.00;99.90;;;;;;6245043;22;20038;-88
2022/09/22 09:25:00;;;;;;;6.93;4.30;;;18.20;99.90;;;;;;6242852;22;20339;-86
2022/09/22 09:27:29;;;;;;;4.85;3.80;;;18.40;99.90;;;;;;6243727;22;20019;-86
2022/09/22 09:30:19;;;;;;;6.63;3.28;;;18.50;99.90;;;;;;6218579;22;20790;-86
2022/09/22 09:32:58;;;;;;;5.93;3.03;;;18.50;99.90;;;;;;6218407;22;20031;-85
2022/09/22 09:35:40;;;;;;;5.32;3.13;;;18.70;99.90;;;;;;6216501;22;20030;-86
2022/09/22 09:38:14;;;;;;;4.90;3.03;;;18.80;99.90;;;;;;6243901;22;20073;-87
2022/09/22 09:40:59;;;;;;;5.35;2.67;;;19.00;99.90;;;;;;6218572;22;20016;-89
2022/09/22 09:43:27;;;;;;;5.18;2.67;;;20.10;99.90;;;;;;6241611;22;20012;-88
2022/09/22 09:46:07;;;;;;;3.90;2.20;;;19.20;99.90;;;;;;6219967;22;20019;-86
2022/09/22 09:49:02;;;;;;;7.35;2.45;;;18.80;99.90;;;;;;6245007;22;20470;-86
2022/09/22 09:51:34;;;;;;;6.47;3.28;;;19.50;99.90;;;;;;6217929;22;20058;-85
2022/09/22 09:54:04;;;;;;;5.63;2.90;;;19.60;99.90;;;;;;6218596;22;20023;-84
2022/09/22 09:56:31;;;;;;;5.32;2.92;;;19.80;99.90;;;;;;6217766;22;20015;-85
2022/09/22 10:01:56;;;;;;;6.70;2.83;;;20.00;99.90;;;;;;6241824;22;20028;-87
2022/09/22 10:04:40;;;;;;;5.53;3.00;;;19.90;99.90;;;;;;6242931;22;20024;-88
2022/09/22 10:07:20;;;;;;;5.57;3.22;;;19.90;99.90;;;;;;6242541;22;20081;-87
2022/09/22 10:09:48;;;;;;;7.00;3.30;;;19.80;99.90;;;;;;6217152;22;20019;-86
2022/09/22 10:12:26;;;;;;;5.03;3.00;;;19.70;99.90;;;;;;6215664;22;20077;-85
2022/09/22 10:14:55;;;;;;;6.57;3.40;;;19.80;99.90;;;;;;6217069;22;20047;-87
2022/09/22 10:17:47;;;;;;;4.97;3.08;;;19.80;99.90;;;;;;6217322;22;20019;-87
2022/09/22 10:20:59;;;;;;;5.18;3.40;;;19.90;99.90;;;;;;6218989;22;20475;-86
2022/09/22 10:23:26;;;;;;;6.50;3.65;;;20.10;99.50;;;;;;6210794;22;20026;-88
2022/09/22 10:26:14;;;;;;;7.78;3.80;;;20.10;99.90;;;;;;6190876;22;20078;-85
2022/09/22 10:28:42;;;;;;;7.85;3.83;;;20.30;99.90;;;;;;6213726;22;20015;-87
2022/09/22 10:31:27;;;;;;;5.03;3.38;;;20.40;99.90;;;;;;6214605;22;20023;-88
2022/09/22 10:34:02;;;;;;;5.55;3.00;;;20.60;98.70;;;;;;6191006;22;20034;-89
2022/09/22 10:36:32;;;;;;;6.22;3.20;;;20.60;98.90;;;;;;6213835;22;20023;-87
2022/09/22 10:39:05;;;;;;;5.95;3.13;;;20.60;98.80;;;;;;6190445;22;20020;-87
2022/09/22 10:41:37;;;;;;;4.50;2.45;;;20.80;98.10;;;;;;6190990;22;20030;-87
2022/09/22 10:44:15;;;;;;;6.88;3.25;;;20.60;97.80;;;;;;6215841;22;20028;-87
2022/09/22 10:47:15;;;;;;;;;;;;;;;;;;;;;
2022/09/22 10:49:56;;;;;;;4.88;3.15;;;21.20;96.40;;;;;;6242921;22;20012;-87
2022/09/22 10:53:04;;;;;;;5.30;3.47;;;20.70;96.30;;;;;;6216762;22;20085;-86
2022/09/22 10:55:34;;;;;;;4.47;2.90;;;21.40;95.70;;;;;;6186769;22;20339;-87
2022/09/22 10:58:10;;;;;;;5.35;3.00;;;21.60;96.50;;;;;;6216551;22;20034;-87
2022/09/22 11:00:41;;;;;;;7.13;2.65;;;21.70;96.00;;;;;;6213307;22;20857;-83
2022/09/22 11:03:28;;;;;;;7.43;2.97;;;21.90;95.50;;;;;;6217374;22;20106;-89
2022/09/22 11:12:43;;;;;;;6.45;3.42;;;22.60;93.80;;;;;;6244231;22;20338;-88
2022/09/22 11:15:20;;;;;;;4.88;2.97;;;22.80;91.20;;;;;;6200129;22;20044;-88
2022/09/22 11:18:36;;;;;;;5.15;3.33;;;23.00;90.50;;;;;;6218753;22;20426;-81
2022/09/22 11:21:30;;;;;;;6.90;3.40;;;23.30;90.60;;;;;;6239980;22;20019;-80
2022/09/22 11:24:15;;;;;;;5.80;2.80;;;23.50;91.10;;;;;;6214625;22;20024;-81
2022/09/22 11:26:55;;;;;;;8.80;3.15;;;23.60;88.60;;;;;;6242892;22;20031;-79
2022/09/22 11:29:24;;;;;;;5.43;2.88;;;23.70;90.40;;;;;;6244265;22;20312;-78
2022/09/22 11:32:18;;;;;;;5.45;2.75;;;23.90;89.50;;;;;;6217779;22;20076;-78
2022/09/22 11:35:06;;;;;;;4.57;2.55;;;24.00;86.60;;;;;;6216126;22;20034;-79
2022/09/22 11:37:49;;;;;;;4.70;2.70;;;23.70;86.40;;;;;;6217206;22;20016;-78
2022/09/22 11:40:25;;;;;;;5.35;3.10;;;24.00;87.30;;;;;;6217259;22;20398;-78
2022/09/22 11:43:28;;;;;;;5.07;2.67;;;24.00;83.30;;;;;;6215963;22;20015;-79
2022/09/22 11:46:20;;;;;;;3.88;2.47;;;24.10;81.90;;;;;;6241373;22;20035;-78
2022/09/22 11:49:23;;;;;;;4.25;2.20;;;24.20;78.60;;;;;;6240213;22;20016;-79
2022/09/22 11:52:27;;;;;;;6.78;2.28;;;24.60;80.60;;;;;;6238189;22;20027;-78
2022/09/22 11:55:13;;;;;;;5.45;2.63;;;24.80;80.40;;;;;;6216018;22;20043;-78
2022/09/22 11:57:44;;;;;;;6.65;2.47;;;24.90;79.10;;;;;;6239930;22;20126;-79
2022/09/22 12:00:17;;;;;;;4.75;2.40;;;25.00;79.10;;;;;;6215150;22;20019;-80
2022/09/22 12:03:15;;;;;;;8.13;2.55;;;25.10;79.40;;;;;;6240200;22;20019;-79
2022/09/22 12:05:51;;;;;;;6.55;2.47;;;25.30;77.70;;;;;;6221068;22;20016;-79
2022/09/22 12:08:24;;;;;;;5.40;2.30;;;25.30;76.60;;;;;;6240659;22;20020;-80
2022/09/22 12:10:51;;;;;;;4.47;2.33;;;25.50;76.50;;;;;;6240871;22;20039;-80
2022/09/22 12:13:28;;;;;;;4.97;2.00;;;25.30;75.40;;;;;;6216539;22;20023;-79
2022/09/22 12:16:18;;;;;;;4.20;2.47;;;25.30;75.00;;;;;;6241123;22;20047;-79
2022/09/22 12:19:02;;;;;;;3.83;2.10;;;25.40;73.30;;;;;;6214909;22;20097;-80
2022/09/22 12:21:58;;;;;;;5.72;2.17;;;25.50;72.70;;;;;;6240065;22;20016;-80
2022/09/22 12:24:24;;;;;;;3.60;2.17;;;25.60;71.80;;;;;;6215666;22;20023;-80
2022/09/22 12:26:50;;;;;;;4.43;2.17;;;25.60;73.00;;;;;;6240372;22;20027;-79
2022/09/22 12:29:16;;;;;;;3.45;1.90;;;25.70;72.70;;;;;;6216119;22;20020;-79
2022/09/22 12:31:44;;;;;;;6.50;2.50;;;25.90;72.50;;;;;;6214080;22;20410;-79
2022/09/22 12:34:18;;;;;;;5.47;2.13;;;26.10;71.90;;;;;;6215216;22;20028;-80
2022/09/22 12:36:45;;;;;;;3.42;1.75;;;26.20;70.30;;;;;;6240577;22;20019;-79
2022/09/22 12:39:16;;;;;;;4.93;1.88;;;26.40;70.70;;;;;;6241290;22;20016;-80
2022/09/22 12:41:56;;;;;;;5.55;1.80;;;26.40;69.60;;;;;;6215706;22;20055;-80
2022/09/22 12:44:29;;;;;;;3.63;1.90;;;26.60;67.10;;;;;;6215849;22;20016;-80
2022/09/22 12:47:00;;;;;;;5.18;1.90;;;26.80;68.90;;;;;;6240996;22;20097;-79
2022/09/22 12:49:26;;;;;;;3.85;2.13;;;26.90;68.30;;;;;;6217372;22;20320;-79
2022/09/22 12:51:52;;;;;;;5.35;1.75;;;26.90;68.10;;;;;;6240862;22;20465;-79
2022/09/22 12:54:21;;;;;;;5.72;1.77;;;26.80;68.00;;;;;;6240605;22;20012;-80
2022/09/22 12:56:57;;;;;;;5.00;2.00;;;26.80;67.90;;;;;;6239125;22;20043;-80
2022/09/22 12:59:35;;;;;;;5.03;2.10;;;26.80;67.50;;;;;;6214532;22;20024;-79
2022/09/22 13:02:10;;;;;;;4.13;1.85;;;26.50;65.00;;;;;;6237270;22;20015;-79
2022/09/22 13:04:36;;;;;;;4.75;1.75;;;26.40;66.10;;;;;;6213237;22;20072;-80
2022/09/22 13:07:04;;;;;;;5.18;2.50;;;26.30;67.10;;;;;;6213456;22;20023;-78
2022/09/22 13:09:31;;;;;;;3.80;1.80;;;26.00;66.90;;;;;;6216848;22;20562;-79
2022/09/22 13:12:13;;;;;;;5.35;2.38;;;25.90;67.50;;;;;;6190940;22;20345;-78
2022/09/22 13:14:59;;;;;;;5.45;2.42;;;25.90;67.40;;;;;;6241325;22;20077;-80
2022/09/22 13:17:31;;;;;;;;;;;26.00;66.70;;;;;;6217360;22;20058;-78
2022/09/22 13:19:57;;;;;;;5.75;1.55;;;26.00;67.00;;;;;;6240893;22;20208;-80
2022/09/22 13:22:22;;;;;;;4.40;1.73;;;26.10;68.10;;;;;;6191148;22;20023;-79
2022/09/22 13:24:48;;;;;;;5.50;1.70;;;26.10;66.90;;;;;;6190822;22;20438;-79
2022/09/22 13:27:14;;;;;;;3.05;1.60;;;26.10;66.40;;;;;;6216573;22;20026;-79
2022/09/22 13:29:56;;;;;;;4.57;1.70;;;26.00;66.50;;;;;;6191193;22;20020;-80
2022/09/22 13:32:25;;;;;;;4.45;1.70;;;26.10;65.70;;;;;;6241781;22;20106;-78
2022/09/22 13:34:51;;;;;;;4.53;1.70;;;26.00;66.30;;;;;;6240787;22;20019;-79
2022/09/22 13:37:26;;;;;;;4.80;1.60;;;25.80;66.20;;;;;;6190950;22;20011;-79
2022/09/22 13:39:53;;;;;;;6.82;2.15;;;25.70;65.50;;;;;;6240861;22;20098;-78
2022/09/22 13:42:23;;;;;;;5.65;1.73;;;25.50;66.60;;;;;;6215215;22;20076;-78
2022/09/22 13:45:17;;;;;;;3.47;1.63;;;25.10;66.50;;;;;;6239886;22;20025;-75
2022/09/22 13:47:46;;;;;;;3.45;1.40;;;24.90;67.00;;;;;;6213882;22;20078;-88
2022/09/22 13:50:18;;;;;;;3.47;1.38;;;24.90;68.00;;;;;;6221040;22;20023;-88
2022/09/22 13:52:47;;;;;;;4.22;1.40;;;25.00;67.50;;;;;;6218763;22;20028;-88
2022/09/22 13:55:39;;;;;;;;;;;;;;;;;;;;;
2022/09/22 13:58:12;;;;;;;3.55;1.58;;;24.90;67.50;;;;;;6245172;22;20026;-88
2022/09/22 14:00:44;;;;;;;3.63;1.80;;;24.80;67.70;;;;;;6245522;22;20026;-88